createdAt,value
2019-04-22T00:01:28.639Z,36.30
2019-04-22T00:04:01.307Z,36.70
2019-04-22T00:06:50.028Z,36.20
2019-04-22T00:09:24.152Z,36.00
2019-04-22T00:11:52.873Z,36.10
2019-04-22T00:14:19.146Z,36.10
2019-04-22T00:16:58.509Z,35.90
2019-04-22T00:19:30.376Z,36.90
2019-04-22T00:22:03.320Z,35.50
2019-04-22T00:24:27.310Z,35.90
2019-04-22T00:26:59.477Z,36.60
2019-04-22T00:29:42.394Z,35.30
2019-04-22T00:32:22.629Z,36.00
2019-04-22T00:34:53.547Z,36.00
2019-04-22T00:37:28.525Z,35.40
2019-04-22T00:40:16.535Z,35.90
2019-04-22T00:42:28.802Z,36.30
2019-04-22T00:45:01.962Z,36.50
2019-04-22T00:50:15.848Z,36.50
2019-04-22T00:52:32.468Z,36.70
2019-04-22T00:55:10.248Z,36.70
2019-04-22T00:57:28.182Z,36.80
2019-04-22T01:00:01.461Z,37.30
2019-04-22T01:02:34.665Z,37.30
2019-04-22T01:05:05.500Z,37.70
2019-04-22T01:07:30.562Z,38.10
2019-04-22T01:12:34.638Z,38.80
2019-04-22T01:15:00.395Z,40.50
2019-04-22T01:17:34.336Z,39.70
2019-04-22T01:22:30.020Z,39.80
2019-04-22T01:24:56.380Z,39.80
2019-04-22T01:27:20.504Z,40.10
2019-04-22T01:29:48.985Z,39.80
2019-04-22T01:32:17.570Z,41.10
2019-04-22T01:34:55.260Z,40.60
2019-04-22T01:37:28.807Z,40.10
2019-04-22T01:40:06.077Z,41.50
2019-04-22T01:42:35.816Z,40.40
2019-04-22T01:45:05.635Z,40.80
2019-04-22T01:47:36.702Z,40.30
2019-04-22T01:50:10.078Z,40.50
2019-04-22T01:52:41.575Z,40.50
2019-04-22T01:57:37.613Z,40.80
2019-04-22T01:59:58.753Z,41.10
2019-04-22T02:02:35.393Z,40.50
2019-04-22T02:05:10.630Z,41.60
2019-04-22T02:07:37.099Z,41.10
2019-04-22T02:10:02.362Z,42.10
2019-04-22T02:12:36.857Z,42.10
2019-04-22T02:15:19.684Z,41.30
2019-04-22T02:17:53.459Z,42.30
2019-04-22T02:20:20.637Z,42.90
2019-04-22T02:23:43.940Z,43.30
2019-04-22T02:26:04.118Z,43.50
2019-04-22T02:36:18.730Z,43.80
2019-04-22T02:38:55.433Z,44.30
2019-04-22T02:41:16.063Z,45.10
2019-04-22T02:43:46.501Z,44.80
2019-04-22T02:54:02.585Z,45.40
2019-04-22T02:56:21.891Z,45.80
2019-04-22T03:01:08.782Z,45.50
2019-04-22T03:03:41.800Z,45.10
2019-04-22T03:06:15.445Z,45.30
2019-04-22T03:08:39.676Z,46.60
2019-04-22T03:11:07.622Z,47.40
2019-04-22T03:13:40.679Z,45.60
2019-04-22T03:16:08.333Z,46.40
2019-04-22T03:18:39.924Z,46.30
2019-04-22T03:26:11.950Z,46.90
2019-04-22T03:28:37.171Z,46.30
2019-04-22T03:39:38.047Z,47.10
2019-04-22T03:44:32.073Z,46.10
2019-04-22T03:49:48.014Z,47.10
2019-04-22T03:52:05.393Z,46.70
2019-04-22T03:59:39.123Z,46.90
2019-04-22T04:07:20.518Z,47.80
2019-04-22T04:09:39.083Z,47.10
2019-04-22T04:11:59.977Z,47.00
2019-04-22T04:14:38.117Z,46.90
2019-04-22T04:17:09.453Z,46.80
2019-04-22T04:21:57.803Z,47.40
2019-04-22T04:24:53.583Z,47.90
2019-04-22T04:27:07.454Z,47.60
2019-04-22T04:32:09.855Z,48.70
2019-04-22T04:34:43.748Z,48.60
2019-04-22T04:37:07.436Z,48.60
2019-04-22T04:39:36.440Z,48.90
2019-04-22T04:42:23.457Z,48.80
2019-04-22T04:45:08.140Z,48.10
2019-04-22T04:49:54.677Z,46.70
2019-04-22T04:52:39.713Z,47.60
2019-04-22T04:54:48.680Z,47.00
2019-04-22T04:57:14.592Z,46.20
2019-04-22T05:00:11.152Z,47.00
2019-04-22T05:04:56.178Z,46.10
2019-04-22T05:07:19.593Z,45.80
2019-04-22T05:09:36.014Z,45.10
2019-04-22T05:14:36.909Z,43.10
2019-04-22T05:17:16.471Z,42.40
2019-04-22T05:22:07.859Z,41.60
2019-04-22T05:24:35.050Z,40.40
2019-04-22T05:27:15.108Z,40.80
2019-04-22T05:29:46.498Z,38.90
2019-04-22T05:32:01.521Z,39.00
2019-04-22T05:34:35.538Z,38.50
2019-04-22T05:37:07.354Z,38.10
2019-04-22T05:39:38.079Z,38.00
2019-04-22T05:42:10.425Z,38.60
2019-04-22T05:44:38.981Z,38.20
2019-04-22T05:47:02.636Z,38.20
2019-04-22T05:49:31.283Z,37.20
2019-04-22T05:52:05.248Z,36.50
2019-04-22T05:54:35.071Z,37.20
2019-04-22T05:57:03.954Z,37.30
2019-04-22T05:59:44.547Z,36.60
2019-04-22T06:02:05.149Z,38.70
2019-04-22T06:04:29.468Z,37.00
2019-04-22T06:07:00.465Z,35.10
2019-04-22T06:09:36.733Z,34.60
2019-04-22T06:11:59.178Z,34.00
2019-04-22T06:14:37.065Z,35.40
2019-04-22T06:17:11.067Z,33.00
2019-04-22T06:19:37.995Z,31.90
2019-04-22T06:22:15.515Z,33.30
2019-04-22T06:24:43.679Z,31.90
2019-04-22T06:27:14.737Z,31.20
2019-04-22T06:29:36.565Z,30.30
2019-04-22T06:34:42.241Z,30.30
2019-04-22T06:37:14.390Z,30.10
2019-04-22T06:39:34.189Z,30.70
2019-04-22T06:44:45.717Z,29.60
2019-04-22T06:47:40.010Z,29.80
2019-04-22T06:52:14.184Z,29.30
2019-04-22T06:54:43.574Z,29.30
2019-04-22T06:57:08.806Z,29.20
2019-04-22T06:59:39.429Z,29.40
2019-04-22T07:02:12.359Z,29.20
2019-04-22T07:04:43.034Z,29.10
2019-04-22T07:07:08.395Z,28.90
2019-04-22T07:09:41.444Z,29.10
2019-04-22T07:12:12.092Z,29.10
2019-04-22T07:14:37.363Z,29.10
2019-04-22T07:17:07.077Z,29.40
2019-04-22T07:19:40.871Z,29.10
2019-04-22T07:22:13.489Z,29.60
2019-04-22T07:27:12.889Z,29.00
2019-04-22T07:29:38.935Z,29.20
2019-04-22T07:32:07.205Z,28.90
2019-04-22T07:34:42.644Z,28.80
2019-04-22T07:37:19.719Z,28.90
2019-04-22T07:39:44.010Z,28.80
2019-04-22T07:42:15.095Z,28.60
2019-04-22T07:44:48.098Z,28.50
2019-04-22T07:49:47.282Z,27.70
2019-04-22T07:52:09.899Z,27.80
2019-04-22T07:54:41.397Z,27.90
2019-04-22T07:59:40.405Z,27.40
2019-04-22T08:02:15.828Z,27.00
2019-04-22T08:04:54.285Z,28.10
2019-04-22T08:07:14.670Z,28.00
2019-04-22T08:09:47.212Z,27.20
2019-04-22T08:12:12.099Z,27.30
2019-04-22T08:14:40.898Z,27.50
2019-04-22T08:17:38.869Z,25.60
2019-04-22T08:19:41.936Z,26.20
2019-04-22T08:22:12.494Z,26.30
2019-04-22T08:24:51.255Z,25.50
2019-04-22T08:27:11.850Z,25.80
2019-04-22T08:29:52.249Z,25.90
2019-04-22T08:32:15.139Z,25.90
2019-04-22T08:34:44.793Z,25.30
2019-04-22T08:37:41.633Z,23.00
2019-04-22T08:39:40.569Z,22.60
2019-04-22T08:42:17.925Z,22.10
2019-04-22T08:44:56.761Z,21.70
2019-04-22T08:47:21.456Z,21.80
2019-04-22T08:49:50.209Z,21.10
2019-04-22T08:52:19.444Z,20.80
2019-04-22T08:54:44.546Z,20.80
2019-04-22T08:57:18.434Z,20.80
2019-04-22T08:59:43.215Z,20.50
2019-04-22T09:02:20.588Z,19.50
2019-04-22T09:04:45.049Z,19.50
2019-04-22T09:09:44.477Z,19.30
2019-04-22T09:12:20.042Z,19.90
2019-04-22T09:14:45.726Z,19.80
2019-04-22T09:17:17.435Z,19.70
2019-04-22T09:19:42.496Z,19.40
2019-04-22T09:27:24.675Z,18.40
2019-04-22T09:29:44.456Z,18.20
2019-04-22T09:34:47.042Z,17.60
2019-04-22T09:37:21.026Z,17.60
2019-04-22T09:39:50.817Z,17.00
2019-04-22T09:42:22.009Z,17.40
2019-04-22T09:44:47.858Z,16.60
2019-04-22T09:47:19.410Z,17.10
2019-04-22T09:52:16.115Z,17.40
2019-04-22T09:54:57.876Z,17.60
2019-04-22T09:57:21.118Z,17.80
2019-04-22T09:59:52.615Z,17.50
2019-04-22T10:04:55.472Z,17.20
2019-04-22T10:07:20.914Z,17.80
2019-04-22T10:12:29.815Z,17.30
2019-04-22T10:17:23.788Z,16.80
2019-04-22T10:19:53.789Z,16.60
2019-04-22T10:22:27.531Z,16.10
2019-04-22T10:24:52.025Z,16.00
2019-04-22T10:27:21.055Z,15.90
2019-04-22T10:30:04.373Z,15.10
2019-04-22T10:32:17.570Z,14.00
2019-04-22T10:34:44.474Z,13.80
2019-04-22T10:37:11.818Z,14.00
2019-04-22T10:39:50.590Z,13.50
2019-04-22T10:42:11.410Z,13.30
2019-04-22T10:44:39.818Z,13.00
2019-04-22T10:47:08.011Z,12.80
2019-04-22T10:49:36.347Z,13.30
2019-04-22T10:52:04.836Z,13.00
2019-04-22T10:54:33.691Z,12.70
2019-04-22T10:57:03.239Z,13.10
2019-04-22T10:59:32.306Z,13.10
2019-04-22T11:02:01.754Z,13.30
2019-04-22T11:04:30.220Z,13.00
2019-04-22T11:07:03.842Z,13.40
2019-04-22T11:09:29.052Z,12.90
2019-04-22T11:12:04.418Z,12.70
2019-04-22T11:14:28.678Z,13.20
2019-04-22T11:16:58.842Z,13.40
2019-04-22T11:19:27.738Z,12.90
2019-04-22T11:22:03.751Z,13.40
2019-04-22T11:24:26.681Z,13.00
2019-04-22T11:26:57.031Z,12.60
2019-04-22T11:29:25.589Z,13.20
2019-04-22T11:31:54.706Z,13.60
2019-04-22T11:34:24.915Z,13.50
2019-04-22T11:36:56.823Z,13.20
2019-04-22T11:39:26.018Z,14.10
2019-04-22T11:41:55.987Z,13.50
2019-04-22T11:44:25.404Z,13.10
2019-04-22T11:46:54.039Z,12.90
2019-04-22T11:49:22.067Z,12.70
2019-04-22T11:51:50.066Z,12.90
2019-04-22T11:54:18.920Z,13.20
2019-04-22T11:56:47.302Z,13.20
2019-04-22T11:59:15.874Z,13.90
2019-04-22T12:01:46.835Z,12.50
2019-04-22T12:04:16.030Z,12.00
2019-04-22T12:06:45.847Z,12.60
2019-04-22T12:09:17.575Z,12.80
2019-04-22T12:11:46.886Z,13.10
2019-04-22T12:14:15.928Z,12.40
2019-04-22T12:16:45.440Z,11.80
2019-04-22T12:19:15.688Z,12.10
2019-04-22T12:21:44.767Z,12.10
2019-04-22T12:24:13.268Z,12.00
2019-04-22T12:26:42.377Z,12.20
2019-04-22T12:29:11.074Z,11.90
2019-04-22T12:31:39.886Z,11.50
2019-04-22T12:34:08.103Z,11.60
2019-04-22T12:36:36.375Z,11.20
2019-04-22T12:39:07.686Z,11.00
2019-04-22T12:41:38.245Z,10.90
2019-04-22T12:44:07.510Z,10.90
2019-04-22T12:46:38.418Z,10.70
2019-04-22T12:49:07.874Z,10.70
2019-04-22T12:51:36.749Z,10.40
2019-04-22T12:54:05.060Z,10.20
2019-04-22T12:56:35.433Z,9.90
2019-04-22T12:59:05.573Z,10.40
2019-04-22T13:01:35.109Z,10.50
2019-04-22T13:04:08.972Z,10.70
2019-04-22T13:06:33.423Z,10.70
2019-04-22T13:09:02.189Z,10.30
2019-04-22T13:11:36.111Z,10.30
2019-04-22T13:14:03.054Z,10.40
2019-04-22T13:16:33.160Z,10.20
2019-04-22T13:19:06.928Z,10.20
2019-04-22T13:21:33.089Z,9.40
2019-04-22T13:24:02.524Z,9.70
2019-04-22T13:26:31.999Z,9.20
2019-04-22T13:29:01.055Z,8.70
2019-04-22T13:31:29.158Z,9.30
2019-04-22T13:34:00.191Z,9.50
2019-04-22T13:36:29.607Z,9.00
2019-04-22T13:38:58.745Z,8.40
2019-04-22T13:43:58.211Z,8.10
2019-04-22T13:46:31.252Z,8.20
2019-04-22T13:49:27.044Z,8.10
2019-04-22T13:54:12.669Z,9.00
2019-04-22T13:56:49.165Z,7.50
2019-04-22T13:59:09.155Z,6.40
2019-04-22T14:01:46.414Z,6.60
2019-04-22T14:04:28.539Z,7.40
2019-04-22T14:06:58.749Z,7.30
2019-04-22T14:09:28.326Z,7.00
2019-04-22T14:12:05.214Z,6.60
2019-04-22T14:14:30.199Z,6.30
2019-04-22T14:16:58.854Z,6.40
2019-04-22T14:19:27.849Z,6.20
2019-04-22T14:21:55.979Z,5.70
2019-04-22T14:24:24.008Z,5.60
2019-04-22T14:27:10.047Z,5.70
2019-04-22T14:29:22.175Z,5.60
2019-04-22T14:32:04.221Z,5.50
2019-04-22T14:34:20.774Z,5.10
2019-04-22T14:36:51.105Z,5.00
2019-04-22T14:39:19.844Z,5.10
2019-04-22T14:42:10.918Z,6.10
2019-04-22T14:47:15.661Z,5.70
2019-04-22T14:49:42.143Z,5.40
2019-04-22T14:52:13.197Z,7.20
2019-04-22T14:54:34.074Z,7.90
2019-04-22T14:56:48.512Z,8.20
2019-04-22T14:59:16.836Z,8.70
2019-04-22T15:01:45.643Z,8.80
2019-04-22T15:04:15.114Z,8.60
2019-04-22T15:06:46.377Z,9.00
2019-04-22T15:09:14.410Z,9.40
2019-04-22T15:11:55.786Z,9.50
2019-04-22T15:14:17.271Z,9.90
2019-04-22T15:17:11.134Z,9.80
2019-04-22T15:19:45.459Z,9.50
2019-04-22T15:22:14.577Z,9.60
2019-04-22T15:24:45.046Z,10.00
2019-04-22T15:27:14.154Z,9.70
2019-04-22T15:29:43.218Z,9.50
2019-04-22T15:32:11.766Z,9.30
2019-04-22T15:34:41.454Z,9.60
2019-04-22T15:37:09.723Z,9.80
2019-04-22T15:39:39.435Z,9.80
2019-04-22T15:42:14.476Z,10.10
2019-04-22T15:44:37.911Z,10.40
2019-04-22T15:47:08.996Z,10.50
2019-04-22T15:49:38.139Z,10.60
2019-04-22T15:52:08.114Z,10.70
2019-04-22T15:54:37.511Z,11.10
2019-04-22T15:57:06.674Z,11.10
2019-04-22T15:59:50.517Z,11.00
2019-04-22T16:02:06.641Z,10.80
2019-04-22T16:04:34.838Z,10.70
2019-04-22T16:07:03.366Z,10.40
2019-04-22T16:09:31.509Z,10.50
2019-04-22T16:12:11.588Z,10.70
2019-04-22T16:14:39.619Z,10.60
2019-04-22T16:17:02.573Z,9.90
2019-04-22T16:19:32.929Z,9.70
2019-04-22T16:22:06.927Z,10.20
2019-04-22T16:24:50.219Z,10.40
2019-04-22T16:27:22.699Z,10.20
2019-04-22T16:29:51.594Z,10.20
2019-04-22T16:32:21.183Z,10.40
2019-04-22T16:34:49.933Z,10.60
2019-04-22T16:37:19.043Z,10.90
2019-04-22T16:39:50.278Z,10.80
2019-04-22T16:42:27.769Z,10.80
2019-04-22T16:44:49.310Z,11.10
2019-04-22T16:47:19.565Z,11.20
2019-04-22T16:49:47.907Z,11.10
2019-04-22T16:52:16.244Z,10.70
2019-04-22T16:54:46.375Z,10.40
2019-04-22T16:57:15.811Z,10.60
2019-04-22T16:59:44.817Z,10.80
2019-04-22T17:02:32.895Z,11.30
2019-04-22T17:05:13.855Z,10.70
2019-04-22T17:07:42.459Z,10.80
2019-04-22T17:10:13.737Z,10.70
2019-04-22T17:12:50.793Z,11.00
2019-04-22T17:15:16.031Z,10.90
2019-04-22T17:17:43.398Z,10.90
2019-04-22T17:20:13.324Z,10.20
2019-04-22T17:22:41.883Z,9.90
2019-04-22T17:25:10.132Z,9.90
2019-04-22T17:27:39.270Z,10.30
2019-04-22T17:30:08.547Z,9.90
2019-04-22T17:32:37.767Z,9.80
2019-04-22T17:35:08.348Z,9.80
2019-04-22T17:37:39.646Z,9.70
2019-04-22T17:40:24.346Z,9.40
2019-04-22T17:42:57.827Z,9.60
2019-04-22T17:45:47.793Z,9.50
2019-04-22T17:48:35.415Z,9.50
2019-04-22T17:51:10.518Z,9.70
2019-04-22T17:53:41.699Z,9.70
2019-04-22T17:56:08.618Z,9.80
2019-04-22T17:58:38.528Z,9.90
2019-04-22T18:01:11.905Z,10.20
2019-04-22T18:03:25.795Z,10.20
2019-04-22T18:05:55.468Z,10.00
2019-04-22T18:08:40.749Z,10.30
2019-04-22T18:11:21.756Z,10.30
2019-04-22T18:13:39.225Z,10.50
2019-04-22T18:16:09.858Z,13.10
2019-04-22T18:18:41.708Z,15.80
2019-04-22T18:21:06.336Z,17.30
2019-04-22T18:23:24.862Z,18.30
2019-04-22T18:26:09.831Z,19.10
2019-04-22T18:28:46.435Z,19.60
2019-04-22T18:31:06.674Z,20.00
2019-04-22T18:33:36.988Z,20.20
2019-04-22T18:36:12.608Z,20.70
2019-04-22T18:38:46.016Z,21.40
2019-04-22T18:41:05.078Z,21.30
2019-04-22T18:43:42.461Z,21.60
2019-04-22T18:46:15.678Z,21.60
2019-04-22T18:48:37.661Z,21.80
2019-04-22T18:51:27.697Z,21.90
2019-04-22T18:54:02.882Z,22.00
2019-04-22T18:56:34.289Z,22.20
2019-04-22T18:58:53.764Z,22.20
2019-04-22T19:01:17.644Z,22.50
2019-04-22T19:03:56.174Z,22.50
2019-04-22T19:06:46.114Z,22.60
2019-04-22T19:09:11.949Z,22.90
2019-04-22T19:11:46.234Z,22.90
2019-04-22T19:14:10.898Z,23.00
2019-04-22T19:16:39.813Z,23.20
2019-04-22T19:19:24.535Z,23.20
2019-04-22T19:21:38.019Z,23.40
2019-04-22T19:24:05.982Z,23.40
2019-04-22T19:26:50.532Z,23.40
2019-04-22T19:29:06.912Z,23.60
2019-04-22T19:31:41.026Z,23.60
2019-04-22T19:34:14.724Z,24.40
2019-04-22T19:36:43.637Z,23.70
2019-04-22T19:39:10.498Z,23.50
2019-04-22T19:41:44.180Z,23.20
2019-04-22T19:44:17.679Z,23.30
2019-04-22T19:46:42.449Z,23.30
2019-04-22T19:49:22.098Z,23.10
2019-04-22T19:51:53.917Z,23.10
2019-04-22T19:54:13.949Z,23.10
2019-04-22T19:56:38.769Z,23.10
2019-04-22T19:59:14.997Z,23.10
2019-04-22T20:02:10.945Z,23.20
2019-04-22T20:05:25.885Z,23.20
2019-04-22T20:07:41.643Z,22.90
2019-04-22T20:10:20.706Z,22.80
2019-04-22T20:12:50.051Z,22.60
2019-04-22T20:15:20.012Z,22.40
2019-04-22T20:18:20.848Z,22.40
2019-04-22T20:20:29.243Z,22.30
2019-04-22T20:22:52.455Z,22.30
2019-04-22T20:25:14.608Z,22.90
2019-04-22T20:28:00.040Z,22.20
2019-04-22T20:30:29.552Z,22.10
2019-04-22T20:32:56.268Z,22.20
2019-04-22T20:35:32.983Z,21.80
2019-04-22T20:37:56.781Z,21.70
2019-04-22T20:40:32.006Z,22.20
2019-04-22T20:43:26.819Z,22.70
2019-04-22T20:45:36.358Z,23.30
2019-04-22T20:47:54.943Z,23.70
2019-04-22T20:50:35.879Z,23.90
2019-04-22T20:53:07.155Z,24.40
2019-04-22T20:55:29.607Z,24.30
2019-04-22T20:58:05.143Z,24.40
2019-04-22T21:00:30.926Z,24.70
2019-04-22T21:02:58.919Z,24.90
2019-04-22T21:05:31.425Z,25.40
2019-04-22T21:08:11.321Z,26.30
2019-04-22T21:10:31.421Z,26.70
2019-04-22T21:13:00.199Z,27.20
2019-04-22T21:15:46.877Z,27.30
2019-04-22T21:18:05.521Z,27.30
2019-04-22T21:20:43.143Z,26.90
2019-04-22T21:23:13.956Z,26.50
2019-04-22T21:25:34.721Z,26.40
2019-04-22T21:28:16.091Z,25.50
2019-04-22T21:30:45.704Z,25.10
2019-04-22T21:33:10.565Z,25.40
2019-04-22T21:38:15.172Z,26.30
2019-04-22T21:40:44.151Z,27.60
2019-04-22T21:43:18.461Z,27.30
2019-04-22T21:45:43.684Z,27.60
2019-04-22T21:48:26.299Z,27.30
2019-04-22T21:53:22.763Z,27.50
2019-04-22T21:55:50.756Z,28.50
2019-04-22T21:58:27.759Z,28.40
2019-04-22T22:01:15.122Z,28.20
2019-04-22T22:03:44.293Z,28.20
2019-04-22T22:06:05.991Z,28.00
2019-04-22T22:08:49.015Z,27.80
2019-04-22T22:11:14.206Z,27.50
2019-04-22T22:13:45.592Z,27.30
2019-04-22T22:16:10.070Z,27.40
2019-04-22T22:18:35.496Z,27.00
2019-04-22T22:21:33.421Z,27.10
2019-04-22T22:23:43.708Z,27.00
2019-04-22T22:26:09.392Z,26.80
2019-04-22T22:31:26.616Z,26.90
2019-04-22T22:33:49.856Z,27.00
2019-04-22T22:36:12.005Z,27.10
2019-04-22T22:38:43.734Z,27.30
2019-04-22T22:40:56.068Z,27.30
2019-04-22T22:43:32.011Z,27.10
2019-04-22T22:46:09.511Z,27.00
2019-04-22T22:48:49.742Z,27.10
2019-04-22T22:51:23.194Z,27.10
2019-04-22T22:53:47.955Z,26.90
2019-04-22T22:56:17.086Z,27.10
2019-04-22T22:58:45.356Z,26.90
2019-04-22T23:01:09.874Z,27.20
2019-04-22T23:03:51.038Z,26.90
2019-04-22T23:06:22.703Z,26.90
2019-04-22T23:08:53.836Z,26.70
2019-04-22T23:11:34.084Z,26.80
2019-04-22T23:13:54.220Z,26.70
2019-04-22T23:16:12.726Z,26.70
2019-04-22T23:18:31.931Z,26.60
2019-04-22T23:21:01.391Z,26.60
2019-04-22T23:23:51.314Z,26.60
2019-04-22T23:26:51.974Z,27.10
2019-04-22T23:29:10.436Z,27.30
2019-04-22T23:31:46.892Z,27.30
2019-04-22T23:34:22.363Z,27.70
2019-04-22T23:37:10.369Z,27.60
2019-04-22T23:39:58.438Z,27.50
2019-04-22T23:42:21.920Z,27.50
2019-04-22T23:44:56.278Z,27.50
2019-04-22T23:47:23.840Z,28.10
2019-04-22T23:49:56.120Z,27.50
2019-04-22T23:52:28.996Z,27.40
2019-04-22T23:55:03.249Z,27.40
2019-04-22T23:57:35.424Z,28.30
